Van Cleve, Iowa
Current Conditions -  °F | °C
As of 1:53 AM on Saturday 25 Oct 2014 (Local Time) from KMIW Reporting Station
Moderate Fog Moderate Fog  
Wind Chill: 49°   Ceiling: 100
Heat Index: 49°   Visibility: 0.25mi
Dew Point: 49°   Wind: 0mph
Humidity: 100%   Direction: NA
Pressure: 29.96"   Gusts: NA
Location:  41.9226°N, 93.0682°W
Report Text: KMIW 250653Z AUTO 00000KT 1/4SM FG VV001 09/09 A2996 RMK AO2 SLP148 T00940094 $
Loading
Personal Weather Stations






























Interactive Weather Map
Tropical Storm Tracking
New forecast layout! Learn more

10-Day Weather Forecast

Advertisements
Track Severe Weather on mobile